sensor_id;sensor_type;location;lat;lon;timestamp;pressure;altitude;pressure_sealevel;temperature;humidity
81005;BME280;70472;47.592;17.640;2023-07-30T00:00:20;99516.75;;;18.93;93.88
81005;BME280;70472;47.592;17.640;2023-07-30T00:00:52;99509.06;;;18.90;94.44
81005;BME280;70472;47.592;17.640;2023-07-30T00:01:25;99512.47;;;18.85;95.04
81005;BME280;70472;47.592;17.640;2023-07-30T00:01:57;99504.13;;;18.87;94.65
81005;BME280;70472;47.592;17.640;2023-07-30T00:02:29;99506.34;;;18.90;94.65
81005;BME280;70472;47.592;17.640;2023-07-30T00:03:02;99507.91;;;18.86;95.35
81005;BME280;70472;47.592;17.640;2023-07-30T00:03:34;99509.41;;;18.82;95.03
81005;BME280;70472;47.592;17.640;2023-07-30T00:04:07;99508.34;;;18.83;94.32
81005;BME280;70472;47.592;17.640;2023-07-30T00:04:39;99504.69;;;18.77;94.52
81005;BME280;70472;47.592;17.640;2023-07-30T00:05:12;99507.97;;;18.79;94.90
81005;BME280;70472;47.592;17.640;2023-07-30T00:05:55;99500.06;;;18.78;94.44
81005;BME280;70472;47.592;17.640;2023-07-30T00:06:27;99494.06;;;18.76;94.27
81005;BME280;70472;47.592;17.640;2023-07-30T00:06:59;99492.16;;;18.76;94.69
81005;BME280;70472;47.592;17.640;2023-07-30T00:07:32;99495.13;;;18.75;93.99
81005;BME280;70472;47.592;17.640;2023-07-30T00:08:04;99489.31;;;18.71;94.38
81005;BME280;70472;47.592;17.640;2023-07-30T00:08:36;99489.31;;;18.71;95.53
81005;BME280;70472;47.592;17.640;2023-07-30T00:09:09;99491.47;;;18.69;95.47
81005;BME280;70472;47.592;17.640;2023-07-30T00:09:41;99487.28;;;18.66;94.92
81005;BME280;70472;47.592;17.640;2023-07-30T00:10:13;99480.19;;;18.65;94.23
81005;BME280;70472;47.592;17.640;2023-07-30T00:10:46;99482.31;;;18.63;94.49
81005;BME280;70472;47.592;17.640;2023-07-30T00:11:18;99481.41;;;18.70;95.03
81005;BME280;70472;47.592;17.640;2023-07-30T00:11:50;99483.06;;;18.71;95.30
81005;BME280;70472;47.592;17.640;2023-07-30T00:12:22;99479.75;;;18.68;94.66
81005;BME280;70472;47.592;17.640;2023-07-30T00:12:55;99480.94;;;18.73;94.90
81005;BME280;70472;47.592;17.640;2023-07-30T00:13:27;99480.47;;;18.76;95.68
81005;BME280;70472;47.592;17.640;2023-07-30T00:13:59;99467.47;;;18.78;95.69
81005;BME280;70472;47.592;17.640;2023-07-30T00:14:33;99473.16;;;18.76;96.42
81005;BME280;70472;47.592;17.640;2023-07-30T00:15:07;99467.94;;;18.75;95.79
81005;BME280;70472;47.592;17.640;2023-07-30T00:15:39;99461.44;;;18.76;96.66
81005;BME280;70472;47.592;17.640;2023-07-30T00:16:12;99460.38;;;18.77;96.82
81005;BME280;70472;47.592;17.640;2023-07-30T00:16:44;99457.41;;;18.78;95.82
81005;BME280;70472;47.592;17.640;2023-07-30T00:17:17;99453.19;;;18.82;95.70
81005;BME280;70472;47.592;17.640;2023-07-30T00:17:50;99452.59;;;18.80;96.84
81005;BME280;70472;47.592;17.640;2023-07-30T00:18:22;99450.22;;;18.84;96.92
81005;BME280;70472;47.592;17.640;2023-07-30T00:18:54;99453.41;;;18.81;95.98
81005;BME280;70472;47.592;17.640;2023-07-30T00:19:27;99441.72;;;18.80;96.84
81005;BME280;70472;47.592;17.640;2023-07-30T00:19:59;99445.28;;;18.81;96.78
81005;BME280;70472;47.592;17.640;2023-07-30T00:20:34;99437.69;;;18.83;96.25
81005;BME280;70472;47.592;17.640;2023-07-30T00:21:07;99436.63;;;18.84;96.33
81005;BME280;70472;47.592;17.640;2023-07-30T00:21:39;99437.69;;;18.83;95.13
81005;BME280;70472;47.592;17.640;2023-07-30T00:22:11;99432.75;;;18.80;95.40
81005;BME280;70472;47.592;17.640;2023-07-30T00:22:44;99435.81;;;18.83;96.52
81005;BME280;70472;47.592;17.640;2023-07-30T00:23:16;99438.88;;;18.87;96.92
81005;BME280;70472;47.592;17.640;2023-07-30T00:23:49;99433.44;;;18.87;95.80
81005;BME280;70472;47.592;17.640;2023-07-30T00:24:21;99437.44;;;18.84;96.22
81005;BME280;70472;47.592;17.640;2023-07-30T00:24:53;99433.66;;;18.85;95.61
81005;BME280;70472;47.592;17.640;2023-07-30T00:25:26;99430.13;;;18.85;96.36
81005;BME280;70472;47.592;17.640;2023-07-30T00:25:58;99433.22;;;18.88;95.58
81005;BME280;70472;47.592;17.640;2023-07-30T00:26:30;99431.06;;;18.90;96.52
81005;BME280;70472;47.592;17.640;2023-07-30T00:27:03;99425.88;;;18.89;96.33
81005;BME280;70472;47.592;17.640;2023-07-30T00:27:36;99423.16;;;18.89;95.99
81005;BME280;70472;47.592;17.640;2023-07-30T00:28:08;99422.69;;;18.92;95.94
81005;BME280;70472;47.592;17.640;2023-07-30T00:28:40;99421.88;;;18.91;96.16
81005;BME280;70472;47.592;17.640;2023-07-30T00:29:13;99423.28;;;18.94;96.24
81005;BME280;70472;47.592;17.640;2023-07-30T00:29:45;99418.31;;;18.91;94.73
81005;BME280;70472;47.592;17.640;2023-07-30T00:30:17;99414.19;;;18.88;95.78
81005;BME280;70472;47.592;17.640;2023-07-30T00:30:50;99411.22;;;18.90;96.08
81005;BME280;70472;47.592;17.640;2023-07-30T00:31:22;99411.00;;;18.91;95.98
81005;BME280;70472;47.592;17.640;2023-07-30T00:31:55;99404.72;;;18.91;96.38
81005;BME280;70472;47.592;17.640;2023-07-30T00:32:27;99405.31;;;18.93;95.28
81005;BME280;70472;47.592;17.640;2023-07-30T00:33:00;99399.78;;;18.88;95.78
81005;BME280;70472;47.592;17.640;2023-07-30T00:33:32;99400.34;;;18.90;96.34
81005;BME280;70472;47.592;17.640;2023-07-30T00:34:09;99402.00;;;18.91;95.79
81005;BME280;70472;47.592;17.640;2023-07-30T00:34:41;99402.47;;;18.88;95.10
81005;BME280;70472;47.592;17.640;2023-07-30T00:35:13;99405.66;;;18.85;94.99
81005;BME280;70472;47.592;17.640;2023-07-30T00:35:46;99399.19;;;18.86;95.77
81005;BME280;70472;47.592;17.640;2023-07-30T00:36:18;99405.09;;;18.83;96.15
81005;BME280;70472;47.592;17.640;2023-07-30T00:36:50;99393.97;;;18.84;96.33
81005;BME280;70472;47.592;17.640;2023-07-30T00:37:23;99390.78;;;18.87;96.10
81005;BME280;70472;47.592;17.640;2023-07-30T00:37:55;99397.63;;;18.90;95.18
81005;BME280;70472;47.592;17.640;2023-07-30T00:38:28;99398.25;;;18.92;95.04
81005;BME280;70472;47.592;17.640;2023-07-30T00:39:00;99394.44;;;18.93;95.08
81005;BME280;70472;47.592;17.640;2023-07-30T00:39:33;99397.75;;;18.95;95.32
81005;BME280;70472;47.592;17.640;2023-07-30T00:40:06;99401.28;;;18.95;95.49
81005;BME280;70472;47.592;17.640;2023-07-30T00:40:41;99394.19;;;18.94;94.79
81005;BME280;70472;47.592;17.640;2023-07-30T00:41:13;99390.91;;;18.92;95.54
81005;BME280;70472;47.592;17.640;2023-07-30T00:41:46;99397.16;;;18.93;94.51
81005;BME280;70472;47.592;17.640;2023-07-30T00:42:18;99390.09;;;18.92;95.44
81005;BME280;70472;47.592;17.640;2023-07-30T00:42:50;99386.19;;;18.88;94.33
81005;BME280;70472;47.592;17.640;2023-07-30T00:43:23;99388.66;;;18.89;95.49
81005;BME280;70472;47.592;17.640;2023-07-30T00:43:55;99384.84;;;18.90;95.69
81005;BME280;70472;47.592;17.640;2023-07-30T00:44:27;99381.09;;;18.91;95.96
81005;BME280;70472;47.592;17.640;2023-07-30T00:45:01;99385.47;;;18.92;94.90
81005;BME280;70472;47.592;17.640;2023-07-30T00:45:36;99386.53;;;18.91;95.42
81005;BME280;70472;47.592;17.640;2023-07-30T00:46:11;99392.81;;;18.92;94.61
81005;BME280;70472;47.592;17.640;2023-07-30T00:46:43;99388.31;;;18.86;95.32
81005;BME280;70472;47.592;17.640;2023-07-30T00:47:16;99390.09;;;18.80;94.43
81005;BME280;70472;47.592;17.640;2023-07-30T00:47:48;99390.19;;;18.74;95.30
81005;BME280;70472;47.592;17.640;2023-07-30T00:48:22;99391.25;;;18.73;94.60
81005;BME280;70472;47.592;17.640;2023-07-30T00:48:55;99385.63;;;18.74;95.74
81005;BME280;70472;47.592;17.640;2023-07-30T00:49:28;99386.78;;;18.78;95.19
81005;BME280;70472;47.592;17.640;2023-07-30T00:50:01;99381.69;;;18.82;95.99
81005;BME280;70472;47.592;17.640;2023-07-30T00:50:34;99387.72;;;18.84;95.58
81005;BME280;70472;47.592;17.640;2023-07-30T00:51:08;99390.44;;;18.84;95.77
81005;BME280;70472;47.592;17.640;2023-07-30T00:51:42;99388.53;;;18.84;95.73
81005;BME280;70472;47.592;17.640;2023-07-30T00:52:20;99393.97;;;18.84;95.92
81005;BME280;70472;47.592;17.640;2023-07-30T00:52:53;99390.56;;;18.77;95.82
81005;BME280;70472;47.592;17.640;2023-07-30T00:53:26;99390.56;;;18.77;95.94
81005;BME280;70472;47.592;17.640;2023-07-30T00:54:00;99400.59;;;18.77;95.41
81005;BME280;70472;47.592;17.640;2023-07-30T00:54:33;99386.19;;;18.76;95.69
81005;BME280;70472;47.592;17.640;2023-07-30T00:55:07;99395.16;;;18.77;95.22
81005;BME280;70472;47.592;17.640;2023-07-30T00:55:40;99400.59;;;18.77;95.14
81005;BME280;70472;47.592;17.640;2023-07-30T00:56:12;99393.28;;;18.77;95.00
81005;BME280;70472;47.592;17.640;2023-07-30T00:56:51;99389.63;;;18.72;95.64
81005;BME280;70472;47.592;17.640;2023-07-30T00:57:24;99393.97;;;18.73;95.33
81005;BME280;70472;47.592;17.640;2023-07-30T00:57:57;99381.00;;;18.75;96.34
81005;BME280;70472;47.592;17.640;2023-07-30T00:58:30;99385.69;;;18.79;96.20
81005;BME280;70472;47.592;17.640;2023-07-30T00:59:03;99392.81;;;18.80;95.49
81005;BME280;70472;47.592;17.640;2023-07-30T00:59:36;99387.72;;;18.84;95.27
81005;BME280;70472;47.592;17.640;2023-07-30T01:00:10;99388.78;;;18.83;95.15
81005;BME280;70472;47.592;17.640;2023-07-30T01:00:43;99388.41;;;18.79;94.59
81005;BME280;70472;47.592;17.640;2023-07-30T01:01:16;99392.56;;;18.82;95.01
81005;BME280;70472;47.592;17.640;2023-07-30T01:01:51;99385.00;;;18.84;95.85
81005;BME280;70472;47.592;17.640;2023-07-30T01:02:24;99389.72;;;18.77;95.01
81005;BME280;70472;47.592;17.640;2023-07-30T01:02:56;99387.00;;;18.77;95.90
81005;BME280;70472;47.592;17.640;2023-07-30T01:03:29;99387.00;;;18.77;96.00
81005;BME280;70472;47.592;17.640;2023-07-30T01:04:03;99386.31;;;18.70;95.93
81005;BME280;70472;47.592;17.640;2023-07-30T01:04:36;99390.53;;;18.65;95.77
81005;BME280;70472;47.592;17.640;2023-07-30T01:05:08;99393.66;;;18.69;95.11
81005;BME280;70472;47.592;17.640;2023-07-30T01:05:41;99403.69;;;18.68;94.81
81005;BME280;70472;47.592;17.640;2023-07-30T01:06:14;99417.84;;;18.71;95.92
81005;BME280;70472;47.592;17.640;2023-07-30T01:06:46;99403.28;;;18.65;95.51
81005;BME280;70472;47.592;17.640;2023-07-30T01:07:18;99391.97;;;18.56;96.50
81005;BME280;70472;47.592;17.640;2023-07-30T01:07:51;99394.91;;;18.55;95.85
81005;BME280;70472;47.592;17.640;2023-07-30T01:08:23;99397.41;;;18.56;95.80
81005;BME280;70472;47.592;17.640;2023-07-30T01:08:56;99404.59;;;18.62;96.15
81005;BME280;70472;47.592;17.640;2023-07-30T01:09:29;99414.41;;;18.63;96.18
81005;BME280;70472;47.592;17.640;2023-07-30T01:10:03;99407.91;;;18.64;96.41
81005;BME280;70472;47.592;17.640;2023-07-30T01:10:38;99400.13;;;18.56;95.49
81005;BME280;70472;47.592;17.640;2023-07-30T01:11:14;99391.59;;;18.53;96.57
81005;BME280;70472;47.592;17.640;2023-07-30T01:11:48;99400.13;;;18.56;95.93
81005;BME280;70472;47.592;17.640;2023-07-30T01:12:21;99401.28;;;18.60;96.61
81005;BME280;70472;47.592;17.640;2023-07-30T01:12:54;99396.22;;;18.64;96.30
81005;BME280;70472;47.592;17.640;2023-07-30T01:13:28;99399.16;;;18.62;94.97
81005;BME280;70472;47.592;17.640;2023-07-30T01:14:00;99400.81;;;18.63;95.26
81005;BME280;70472;47.592;17.640;2023-07-30T01:14:35;99404.13;;;18.65;95.64
81005;BME280;70472;47.592;17.640;2023-07-30T01:15:09;99403.78;;;18.62;96.05
81005;BME280;70472;47.592;17.640;2023-07-30T01:15:42;99401.75;;;18.57;95.93
81005;BME280;70472;47.592;17.640;2023-07-30T01:16:15;99394.69;;;18.56;95.60
81005;BME280;70472;47.592;17.640;2023-07-30T01:16:49;99400.94;;;18.45;96.07
81005;BME280;70472;47.592;17.640;2023-07-30T01:17:22;99397.84;;;18.41;95.98
81005;BME280;70472;47.592;17.640;2023-07-30T01:17:55;99406.47;;;18.38;96.41
81005;BME280;70472;47.592;17.640;2023-07-30T01:18:27;99399.16;;;18.39;96.95
81005;BME280;70472;47.592;17.640;2023-07-30T01:19:00;99401.63;;;18.40;96.60
81005;BME280;70472;47.592;17.640;2023-07-30T01:19:33;99401.41;;;18.42;96.12
81005;BME280;70472;47.592;17.640;2023-07-30T01:20:06;99400.94;;;18.45;96.38
81005;BME280;70472;47.592;17.640;2023-07-30T01:20:38;99398.56;;;18.49;97.04
81005;BME280;70472;47.592;17.640;2023-07-30T01:21:11;99395.97;;;18.54;97.08
81005;BME280;70472;47.592;17.640;2023-07-30T01:21:44;99391.97;;;18.56;96.79
81005;BME280;70472;47.592;17.640;2023-07-30T01:22:16;99391.84;;;18.51;95.90
81005;BME280;70472;47.592;17.640;2023-07-30T01:22:49;99390.66;;;18.47;97.12
81005;BME280;70472;47.592;17.640;2023-07-30T01:23:21;99390.66;;;18.47;95.97
81005;BME280;70472;47.592;17.640;2023-07-30T01:23:53;99387.34;;;18.45;96.21
81005;BME280;70472;47.592;17.640;2023-07-30T01:24:26;99387.81;;;18.42;97.30
81005;BME280;70472;47.592;17.640;2023-07-30T01:24:58;99388.44;;;18.44;96.26
81005;BME280;70472;47.592;17.640;2023-07-30T01:25:36;99387.94;;;18.47;97.03
81005;BME280;70472;47.592;17.640;2023-07-30T01:26:26;99386.41;;;18.51;96.17
81005;BME280;70472;47.592;17.640;2023-07-30T01:27:04;99394.44;;;18.46;96.07
81005;BME280;70472;47.592;17.640;2023-07-30T01:27:40;99384.75;;;18.50;96.18
81005;BME280;70472;47.592;17.640;2023-07-30T01:28:18;99386.88;;;18.48;96.01
81005;BME280;70472;47.592;17.640;2023-07-30T01:28:55;99389.34;;;18.50;96.01
81005;BME280;70472;47.592;17.640;2023-07-30T01:29:49;99387.81;;;18.54;96.03
81005;BME280;70472;47.592;17.640;2023-07-30T01:30:30;99385.81;;;18.49;96.46
81005;BME280;70472;47.592;17.640;2023-07-30T01:31:05;99379.78;;;18.47;96.42
81005;BME280;70472;47.592;17.640;2023-07-30T01:31:40;99386.03;;;18.48;96.98
81005;BME280;70472;47.592;17.640;2023-07-30T01:32:13;99383.09;;;18.49;96.80
81005;BME280;70472;47.592;17.640;2023-07-30T01:32:49;99384.16;;;18.48;95.86
81005;BME280;70472;47.592;17.640;2023-07-30T01:33:22;99388.53;;;18.49;96.96
81005;BME280;70472;47.592;17.640;2023-07-30T01:33:56;99389.13;;;18.51;96.26
81005;BME280;70472;47.592;17.640;2023-07-30T01:34:32;99381.44;;;18.48;96.66
81005;BME280;70472;47.592;17.640;2023-07-30T01:35:08;99388.53;;;18.49;96.30
81005;BME280;70472;47.592;17.640;2023-07-30T01:35:42;99382.06;;;18.50;95.23
81005;BME280;70472;47.592;17.640;2023-07-30T01:36:16;99387.81;;;18.54;95.72
81005;BME280;70472;47.592;17.640;2023-07-30T01:36:49;99386.53;;;18.56;95.94
81005;BME280;70472;47.592;17.640;2023-07-30T01:37:22;99389.72;;;18.53;95.59
81005;BME280;70472;47.592;17.640;2023-07-30T01:37:55;99385.09;;;18.54;95.86
81005;BME280;70472;47.592;17.640;2023-07-30T01:38:30;99388.06;;;18.52;95.65
81005;BME280;70472;47.592;17.640;2023-07-30T01:39:04;99380.38;;;18.49;96.18
81005;BME280;70472;47.592;17.640;2023-07-30T01:39:40;99383.09;;;18.49;96.25
81005;BME280;70472;47.592;17.640;2023-07-30T01:40:12;99386.41;;;18.51;95.61
81005;BME280;70472;47.592;17.640;2023-07-30T01:40:45;99380.50;;;18.54;96.63
81005;BME280;70472;47.592;17.640;2023-07-30T01:41:18;99385.47;;;18.57;95.42
81005;BME280;70472;47.592;17.640;2023-07-30T01:41:52;99389.84;;;18.58;95.19
81005;BME280;70472;47.592;17.640;2023-07-30T01:42:29;99384.63;;;18.57;95.52
81005;BME280;70472;47.592;17.640;2023-07-30T01:43:02;99385.94;;;18.54;95.46
81005;BME280;70472;47.592;17.640;2023-07-30T01:43:36;99384.63;;;18.57;95.27
81005;BME280;70472;47.592;17.640;2023-07-30T01:44:09;99385.47;;;18.57;96.24
81005;BME280;70472;47.592;17.640;2023-07-30T01:44:41;99394.19;;;18.59;95.43
81005;BME280;70472;47.592;17.640;2023-07-30T01:45:14;99395.84;;;18.60;95.57
81005;BME280;70472;47.592;17.640;2023-07-30T01:45:46;99390.66;;;18.59;94.77
81005;BME280;70472;47.592;17.640;2023-07-30T01:46:18;99388.75;;;18.59;95.71
81005;BME280;70472;47.592;17.640;2023-07-30T01:46:51;99397.50;;;18.61;94.91
81005;BME280;70472;47.592;17.640;2023-07-30T01:47:23;99395.38;;;18.63;95.79
81005;BME280;70472;47.592;17.640;2023-07-30T01:47:56;99388.31;;;18.62;94.71
81005;BME280;70472;47.592;17.640;2023-07-30T01:48:28;99396.91;;;18.59;95.85
81005;BME280;70472;47.592;17.640;2023-07-30T01:49:00;99396.34;;;18.57;95.66
81005;BME280;70472;47.592;17.640;2023-07-30T01:49:33;99392.53;;;18.58;95.33
81005;BME280;70472;47.592;17.640;2023-07-30T01:50:06;99391.84;;;18.51;96.22
81005;BME280;70472;47.592;17.640;2023-07-30T01:50:38;99390.91;;;18.46;96.01
81005;BME280;70472;47.592;17.640;2023-07-30T01:51:12;99399.38;;;18.49;96.12
81005;BME280;70472;47.592;17.640;2023-07-30T01:51:44;99397.84;;;18.53;95.52
81005;BME280;70472;47.592;17.640;2023-07-30T01:52:16;99406.00;;;18.53;95.44
81005;BME280;70472;47.592;17.640;2023-07-30T01:52:49;99405.44;;;18.51;95.10
81005;BME280;70472;47.592;17.640;2023-07-30T01:53:21;99397.63;;;18.55;96.09
81005;BME280;70472;47.592;17.640;2023-07-30T01:53:54;99403.66;;;18.57;95.01
81005;BME280;70472;47.592;17.640;2023-07-30T01:54:26;99403.28;;;18.53;95.63
81005;BME280;70472;47.592;17.640;2023-07-30T01:54:58;99405.75;;;18.55;95.98
81005;BME280;70472;47.592;17.640;2023-07-30T01:55:31;99411.06;;;18.50;95.66
81005;BME280;70472;47.592;17.640;2023-07-30T01:56:03;99417.34;;;18.50;95.95
81005;BME280;70472;47.592;17.640;2023-07-30T01:56:35;99420.66;;;18.52;95.38
81005;BME280;70472;47.592;17.640;2023-07-30T01:57:08;99420.66;;;18.52;94.78
81005;BME280;70472;47.592;17.640;2023-07-30T01:57:40;99413.34;;;18.53;94.56
81005;BME280;70472;47.592;17.640;2023-07-30T01:58:13;99416.88;;;18.53;94.74
81005;BME280;70472;47.592;17.640;2023-07-30T01:58:45;99421.72;;;18.51;95.95
81005;BME280;70472;47.592;17.640;2023-07-30T01:59:17;99424.31;;;18.46;95.69
81005;BME280;70472;47.592;17.640;2023-07-30T01:59:50;99419.72;;;18.47;96.23
81005;BME280;70472;47.592;17.640;2023-07-30T02:00:22;99415.69;;;18.49;96.23
81005;BME280;70472;47.592;17.640;2023-07-30T02:00:55;99411.06;;;18.50;95.05
81005;BME280;70472;47.592;17.640;2023-07-30T02:01:27;99422.78;;;18.50;95.69
81005;BME280;70472;47.592;17.640;2023-07-30T02:01:59;99409.66;;;18.47;96.49
81005;BME280;70472;47.592;17.640;2023-07-30T02:02:31;99412.97;;;18.49;96.19
81005;BME280;70472;47.592;17.640;2023-07-30T02:03:04;99406.50;;;18.50;96.31
81005;BME280;70472;47.592;17.640;2023-07-30T02:03:37;99395.16;;;18.53;96.22
81005;BME280;70472;47.592;17.640;2023-07-30T02:04:09;99395.97;;;18.54;96.47
81005;BME280;70472;47.592;17.640;2023-07-30T02:04:42;99400.56;;;18.53;95.29
81005;BME280;70472;47.592;17.640;2023-07-30T02:05:15;99398.22;;;18.57;95.84
81005;BME280;70472;47.592;17.640;2023-07-30T02:05:49;99397.97;;;18.58;95.35
81005;BME280;70472;47.592;17.640;2023-07-30T02:06:22;99395.50;;;18.57;95.17
81005;BME280;70472;47.592;17.640;2023-07-30T02:06:54;99391.84;;;18.51;95.18
81005;BME280;70472;47.592;17.640;2023-07-30T02:07:26;99391.03;;;18.51;96.29
81005;BME280;70472;47.592;17.640;2023-07-30T02:07:59;99393.00;;;18.55;95.46
81005;BME280;70472;47.592;17.640;2023-07-30T02:08:32;99391.97;;;18.56;95.44
81005;BME280;70472;47.592;17.640;2023-07-30T02:09:04;99392.19;;;18.55;95.36
81005;BME280;70472;47.592;17.640;2023-07-30T02:09:36;99392.19;;;18.55;95.98
81005;BME280;70472;47.592;17.640;2023-07-30T02:10:09;99387.81;;;18.54;94.74
81005;BME280;70472;47.592;17.640;2023-07-30T02:10:41;99388.41;;;18.56;94.81
81005;BME280;70472;47.592;17.640;2023-07-30T02:11:14;99382.50;;;18.47;95.90
81005;BME280;70472;47.592;17.640;2023-07-30T02:11:46;99379.53;;;18.49;94.87
81005;BME280;70472;47.592;17.640;2023-07-30T02:12:18;99388.19;;;18.46;95.08
81005;BME280;70472;47.592;17.640;2023-07-30T02:12:51;99381.94;;;18.45;95.17
81005;BME280;70472;47.592;17.640;2023-07-30T02:13:24;99385.72;;;18.44;95.09
81005;BME280;70472;47.592;17.640;2023-07-30T02:13:58;99380.72;;;18.41;95.99
81005;BME280;70472;47.592;17.640;2023-07-30T02:14:30;99378.47;;;18.38;96.12
81005;BME280;70472;47.592;17.640;2023-07-30T02:15:06;99376.94;;;18.42;96.15
81005;BME280;70472;47.592;17.640;2023-07-30T02:15:41;99383.00;;;18.44;95.33
81005;BME280;70472;47.592;17.640;2023-07-30T02:16:13;99383.00;;;18.44;95.00
81005;BME280;70472;47.592;17.640;2023-07-30T02:16:46;99374.84;;;18.44;96.15
81005;BME280;70472;47.592;17.640;2023-07-30T02:17:18;99377.56;;;18.44;95.32
81005;BME280;70472;47.592;17.640;2023-07-30T02:17:51;99381.31;;;18.43;95.34
81005;BME280;70472;47.592;17.640;2023-07-30T02:18:23;99380.72;;;18.41;95.83
81005;BME280;70472;47.592;17.640;2023-07-30T02:18:55;99382.88;;;18.39;95.45
81005;BME280;70472;47.592;17.640;2023-07-30T02:19:28;99384.38;;;18.35;96.16
81005;BME280;70472;47.592;17.640;2023-07-30T02:20:01;99390.88;;;18.34;96.71
81005;BME280;70472;47.592;17.640;2023-07-30T02:20:33;99382.25;;;18.37;95.68
81005;BME280;70472;47.592;17.640;2023-07-30T02:21:06;99380.59;;;18.36;96.53
81005;BME280;70472;47.592;17.640;2023-07-30T02:21:38;99388.16;;;18.34;96.57
81005;BME280;70472;47.592;17.640;2023-07-30T02:22:12;99383.69;;;18.39;95.87
81005;BME280;70472;47.592;17.640;2023-07-30T02:22:46;99379.53;;;18.37;96.31
81005;BME280;70472;47.592;17.640;2023-07-30T02:23:18;99387.69;;;18.37;95.49
81005;BME280;70472;47.592;17.640;2023-07-30T02:23:50;99384.03;;;18.43;95.71
81005;BME280;70472;47.592;17.640;2023-07-30T02:24:24;99379.09;;;18.40;95.56
81005;BME280;70472;47.592;17.640;2023-07-30T02:24:56;99376.94;;;18.42;96.63
81005;BME280;70472;47.592;17.640;2023-07-30T02:25:29;99384.50;;;18.40;95.60
81005;BME280;70472;47.592;17.640;2023-07-30T02:26:01;99383.44;;;18.41;95.94
81005;BME280;70472;47.592;17.640;2023-07-30T02:26:33;99383.69;;;18.39;95.95
81005;BME280;70472;47.592;17.640;2023-07-30T02:27:06;99384.75;;;18.38;95.79
81005;BME280;70472;47.592;17.640;2023-07-30T02:27:38;99384.75;;;18.38;95.80
81005;BME280;70472;47.592;17.640;2023-07-30T02:28:10;99385.09;;;18.42;95.79
81005;BME280;70472;47.592;17.640;2023-07-30T02:28:44;99391.13;;;18.44;96.54
81005;BME280;70472;47.592;17.640;2023-07-30T02:29:16;99385.22;;;18.47;95.53
81005;BME280;70472;47.592;17.640;2023-07-30T02:29:49;99380.97;;;18.51;95.59
81005;BME280;70472;47.592;17.640;2023-07-30T02:30:21;99389.13;;;18.51;95.33
81005;BME280;70472;47.592;17.640;2023-07-30T02:30:53;99393.13;;;18.49;95.41
81005;BME280;70472;47.592;17.640;2023-07-30T02:31:26;99387.94;;;18.47;95.61
81005;BME280;70472;47.592;17.640;2023-07-30T02:31:58;99394.44;;;18.46;95.22
81005;BME280;70472;47.592;17.640;2023-07-30T02:32:30;99394.19;;;18.48;95.92
81005;BME280;70472;47.592;17.640;2023-07-30T02:33:03;99400.22;;;18.50;95.82
81005;BME280;70472;47.592;17.640;2023-07-30T02:33:35;99394.78;;;18.50;96.40
81005;BME280;70472;47.592;17.640;2023-07-30T02:34:07;99388.88;;;18.53;95.92
81005;BME280;70472;47.592;17.640;2023-07-30T02:34:40;99395.16;;;18.53;96.12
81005;BME280;70472;47.592;17.640;2023-07-30T02:35:12;99391.84;;;18.51;95.49
81005;BME280;70472;47.592;17.640;2023-07-30T02:35:45;99398.34;;;18.50;95.03
81005;BME280;70472;47.592;17.640;2023-07-30T02:36:17;99402.22;;;18.54;94.97
81005;BME280;70472;47.592;17.640;2023-07-30T02:36:49;99398.09;;;18.52;96.16
81005;BME280;70472;47.592;17.640;2023-07-30T02:37:21;99398.34;;;18.50;95.20
81005;BME280;70472;47.592;17.640;2023-07-30T02:37:54;99399.16;;;18.51;96.19
81005;BME280;70472;47.592;17.640;2023-07-30T02:38:27;99395.03;;;18.48;96.02
81005;BME280;70472;47.592;17.640;2023-07-30T02:38:59;99398.09;;;18.52;96.49
81005;BME280;70472;47.592;17.640;2023-07-30T02:39:31;99392.31;;;18.48;96.09
81005;BME280;70472;47.592;17.640;2023-07-30T02:40:04;99406.72;;;18.49;95.05
81005;BME280;70472;47.592;17.640;2023-07-30T02:40:37;99398.94;;;18.52;95.24
81005;BME280;70472;47.592;17.640;2023-07-30T02:41:09;99402.47;;;18.53;95.93
81005;BME280;70472;47.592;17.640;2023-07-30T02:41:42;99406.00;;;18.53;95.65
81005;BME280;70472;47.592;17.640;2023-07-30T02:42:14;99404.13;;;18.54;94.99
81005;BME280;70472;47.592;17.640;2023-07-30T02:42:46;99403.03;;;18.55;95.01
81005;BME280;70472;47.592;17.640;2023-07-30T02:43:19;99403.88;;;18.55;94.75
81005;BME280;70472;47.592;17.640;2023-07-30T02:43:51;99400.13;;;18.56;94.75
81005;BME280;70472;47.592;17.640;2023-07-30T02:44:23;99406.38;;;18.57;95.00
81005;BME280;70472;47.592;17.640;2023-07-30T02:44:56;99406.13;;;18.58;95.89
81005;BME280;70472;47.592;17.640;2023-07-30T02:45:29;99405.56;;;18.56;95.89
81005;BME280;70472;47.592;17.640;2023-07-30T02:46:02;99407.06;;;18.52;95.87
81005;BME280;70472;47.592;17.640;2023-07-30T02:46:34;99421.94;;;18.50;95.89
81005;BME280;70472;47.592;17.640;2023-07-30T02:47:06;99405.19;;;18.53;95.81
81005;BME280;70472;47.592;17.640;2023-07-30T02:47:39;99408.84;;;18.47;94.87
81005;BME280;70472;47.592;17.640;2023-07-30T02:48:11;99409.66;;;18.47;95.07
81005;BME280;70472;47.592;17.640;2023-07-30T02:48:43;99410.25;;;18.49;96.20
81005;BME280;70472;47.592;17.640;2023-07-30T02:49:16;99410.25;;;18.49;95.17
81005;BME280;70472;47.592;17.640;2023-07-30T02:49:48;99415.22;;;18.52;95.65
81005;BME280;70472;47.592;17.640;2023-07-30T02:50:21;99399.50;;;18.54;95.00
81005;BME280;70472;47.592;17.640;2023-07-30T02:50:53;99401.41;;;18.54;95.26
81005;BME280;70472;47.592;17.640;2023-07-30T02:51:25;99412.97;;;18.49;94.75
81005;BME280;70472;47.592;17.640;2023-07-30T02:51:58;99408.34;;;18.50;95.83
81005;BME280;70472;47.592;17.640;2023-07-30T02:52:30;99411.94;;;18.50;95.91
81005;BME280;70472;47.592;17.640;2023-07-30T02:53:02;99408.13;;;18.51;94.79